Meteo Giornale » Osservazioni meteo Italia » Brescia-Montichiari

ore: 19:50 - Osservazioni Meteo Brescia-Montichiari
Lat. 45° 24' N Lon. 10° 18' E Alt. 104 metri s.l.m.

sereno Europe/Rome

5 °C

Sereno

Temp. 24 Ore

1 °C

12 °C

Ovest/Nord-Ovest

14.8 Km/h

Dew point -5 °C

Umidità 48 %

Visibilità  10 Km

Il sole sorge alle ore 07:51

Il sole tramonta alle ore 17:06

Data e Ora Cielo e Fenomeni T °C DP °C Um. % Pres. hPa Vis. km Vento km/h
Oggi h: 19:50 sereno Sereno 5 -5 48 1012 10 O/NO 14.8
Oggi h: 18:50 sereno Sereno 6 -4 48 1011 10 O 22.2
Oggi h: 16:50 nuvoloso Nuvoloso 8 -5 39 1008 10 O 24
Oggi h: 15:50 nuvoloso Nuvoloso 10 -8 27 1006 10 O/NO 40.7
Oggi h: 14:50 nuvoloso Nuvoloso 10 0 49 1004 10 O 37
Oggi h: 13:50 nuvoloso Nuvoloso 12 -10 20 1003 10 O/NO 46.3
Oggi h: 12:50 poco_nuvoloso Poco Nuvoloso 11 -0 46 1002 10 NO 27.8
Oggi h: 11:50 foschia Foschia 7 4 81 1002 5 O/NO 22.2
Oggi h: 11:00 foschia Foschia 5 2 80 1002 2 O/NO 24
Oggi h: 10:50 nebbia Nebbia 4 3 93 1002 0.8 O 27.8
Oggi h: 09:50 nebbia Nebbia 4 3 93 1001 0 O/NO 18.5
Oggi h: 08:50 nebbia Nebbia 3 3 100 999 0 O 31.5
Oggi h: 07:50 foschia Foschia 3 3 100 1000 2 O 22.2
Oggi h: 06:50 foschia Foschia 3 3 100 999 2 O 13
Oggi h: 05:50 foschia Foschia 3 3 100 999 2 O 11.1
Oggi h: 04:50 foschia Foschia 3 3 100 1000 2 N 5.5
Oggi h: 03:50 foschia Foschia 3 3 100 1000 2 N 3.7
Oggi h: 02:50 foschia Foschia 3 3 100 1000 2 N 5.5
Oggi h: 01:50 foschia Foschia 3 3 100 1001 1 N 5.5
Oggi h: 01:06 nebbia Nebbia 3 3 100 1002 0.9 SE 7.4
Oggi h: 00:50 nebbia Nebbia 2 2 100 1002 0.5 SE 7.4
Ieri h: 23:50 nebbia Nebbia 1 1 100 1003 0.3 SE 9.3
Ieri h: 22:50 nebbia Nebbia 2 2 100 1003 0.9 N 5.5
Ieri h: 21:50 nebbia Nebbia 1 1 100 1004 0.6 N 3.7
Ieri h: 20:50 foschia Foschia 3 2 93 1004 2 N 1.8